Home   Weather   United Kingdom   London   Past weeks
Flag for United Kingdom

Past Weather in London, England, United Kingdom — April 2019

Currently: 66 °F. Mild. (Weather station: Northolt, United Kingdom). See more current weather

April 2019 Weather in London — Graph

°F

High & Low Weather Summary for April 2019

 TemperatureHumidityPressure
High77 °F (Apr 22, 1:50 pm)100% (Apr 2, 7:04 am)30.45 "Hg (Apr 2, 7:04 am)
Low27 °F (Apr 14, 5:50 am)28% (Apr 21, 6:50 pm)29.27 "Hg (Apr 24, 10:50 am)
Average50 °F71%29.93 "Hg
* Reported Apr 1 12:50 am — Apr 30 11:50 pm, London. Weather by CustomWeather, © 2022

Note: Actual official high and low records may vary slightly from our data, if they occured in-between our weather recording intervals... More about our weather records

London Weather History for April 1, 2019

Scroll right to see more
 ConditionsComfort  
Time TempWeatherWind HumidityBarometerVisibility
12:50 am
Mon, Apr 1
41 °FPassing clouds.9 mph81%30.27 "HgN/A
1:50 am41 °FPassing clouds.9 mph81%30.27 "HgN/A
2:50 am39 °FOvercast.8 mph87%30.24 "HgN/A
3:50 am39 °FPassing clouds.6 mph87%30.24 "HgN/A
4:50 am37 °FPassing clouds.5 mph93%30.24 "HgN/A
5:50 am39 °FOvercast.8 mph87%30.21 "HgN/A
6:50 am37 °FSunny.7 mph93%30.21 "Hg10 mi
7:50 am39 °FSunny.8 mph87%30.21 "Hg10 mi
8:50 am43 °FSunny.13 mph81%30.18 "Hg10 mi
9:50 am46 °FPassing clouds.13 mph71%30.18 "HgN/A
10:50 am50 °FSunny.12 mph62%30.18 "Hg10 mi
11:50 am54 °FSunny.14 mph51%30.15 "Hg10 mi
12:50 pm55 °FSunny.12 mph55%30.12 "Hg10 mi
1:50 pm55 °FSunny.10 mph51%30.09 "Hg10 mi
2:50 pm57 °FSunny.10 mph48%30.07 "Hg10 mi
3:50 pm57 °FSunny.12 mph48%30.04 "Hg10 mi
4:50 pm57 °FSunny.9 mph44%30.01 "Hg10 mi
5:50 pm55 °FSunny.9 mph47%29.98 "Hg10 mi
6:50 pm54 °FSunny.10 mph51%29.98 "Hg10 mi
7:50 pm50 °FClear.9 mph54%29.95 "Hg10 mi
8:50 pm48 °FClear.5 mph58%29.95 "Hg10 mi
9:50 pm46 °FClear.3 mph66%29.95 "Hg10 mi
10:50 pm45 °FClear.5 mph76%29.92 "Hg10 mi
11:50 pm43 °FClear.1 mph81%29.89 "HgN/A
Weather by CustomWeather, © 2022

See weather overview